ANACAPA ISLAND CA US current weather conditions

sailwx.info

Wind from 331 at 5 knots gusting 8

Air temperature 17.2° C
Dewpoint 15.4° C

Last reported at 2014-Nov-28 08:23 UTC.
Time now 2014-Nov-28 09:41 UTC

Location: N 34°01' W 119°22'.
View on Google Maps.

See reports from other nearby stations

  
Tides and Currents Weather Stations Pressure Air Temp Water Temp Dewpoint Dewpoint Depression Visibility Wind Speed Wind Dir Waves Ship Positions
date/time (UTC)wind fromknots sea level pressurealtimeterstation pressurevisibilityair tempwater tempwave heightnotes
2014-Nov-28 08:23 331 5 gusting 8 17.2
2014-Nov-28 07:23 328 6 gusting 7 17.2
2014-Nov-28 05:23 339 6 gusting 10 17.2
2014-Nov-28 04:23 342 7 gusting 8 17.8
2014-Nov-28 03:23 327 5 gusting 9 17.8
2014-Nov-28 02:23 306 6 gusting 12 17.8
2014-Nov-28 01:23 310 7 gusting 11 18.3
2014-Nov-28 00:23 298 7 gusting 11 18.9
2014-Nov-27 23:23 301 6 gusting 9 20.0
2014-Nov-27 22:23 299 6 gusting 10 20.6
2014-Nov-27 21:23 319 1 gusting 7 22.8
2014-Nov-27 20:23 243 1 gusting 4 25.6
2014-Nov-27 19:23 306 2 gusting 6 23.9
2014-Nov-27 18:23 341 3 gusting 6 22.2
2014-Nov-27 17:23 333 5 gusting 7 20.0
2014-Nov-27 16:23 342 6 gusting 9 18.9
2014-Nov-27 15:23 339 6 gusting 9 17.8
2014-Nov-27 14:23 330 6 gusting 9 17.8
2014-Nov-27 13:23 330 6 gusting 11 17.8
2014-Nov-27 12:23 330 7 gusting 11 17.8
2014-Nov-27 11:23 328 7 gusting 10 18.3
2014-Nov-27 10:23 322 6 gusting 9 17.8
2014-Nov-27 09:23 324 6 gusting 9 17.8
2014-Nov-27 08:23 323 6 gusting 10 17.8
2014-Nov-27 07:23 329 7 gusting 10 17.2
2014-Nov-27 06:23 326 7 gusting 10 17.8
2014-Nov-27 05:23 338 6 gusting 9 17.8
2014-Nov-27 04:23 341 8 gusting 10 17.8
2014-Nov-27 03:23 330 7 gusting 11 18.3
2014-Nov-27 02:23 321 5 gusting 9 18.3
2014-Nov-27 01:23 308 5 gusting 7 18.3
2014-Nov-27 00:23 276 3 gusting 5 20.0
2014-Nov-26 23:23 272 3 gusting 5 23.3
2014-Nov-26 22:23 275 1 gusting 5 22.2
2014-Nov-26 21:23 292 2 gusting 6 20.6
2014-Nov-26 20:23 298 4 gusting 6 20.0
2014-Nov-26 19:23 312 1 gusting 3 21.7
2014-Nov-26 18:23 030 2 gusting 3 19.4
2014-Nov-26 17:23 032 2 gusting 4 19.4
2014-Nov-26 16:23 005 3 gusting 6 17.8